createdAt,value
2022-12-01T00:01:59.201Z,17.20
2022-12-01T00:05:01.348Z,16.33
2022-12-01T00:08:05.267Z,16.43
2022-12-01T00:11:14.830Z,16.57
2022-12-01T00:14:16.887Z,16.60
2022-12-01T00:17:18.947Z,17.20
2022-12-01T00:20:21.267Z,16.70
2022-12-01T00:23:23.804Z,17.17
2022-12-01T00:26:27.331Z,20.43
2022-12-01T00:29:29.412Z,17.57
2022-12-01T00:32:31.710Z,16.47
2022-12-01T00:35:33.803Z,16.97
2022-12-01T00:38:36.083Z,22.53
2022-12-01T00:41:38.114Z,21.43
2022-12-01T00:44:40.255Z,21.73
2022-12-01T00:47:42.302Z,21.50
2022-12-01T00:50:44.971Z,19.27
2022-12-01T00:53:47.022Z,18.07
2022-12-01T00:56:49.011Z,21.33
2022-12-01T00:59:51.108Z,19.70
2022-12-01T01:02:53.277Z,20.70
2022-12-01T01:05:55.479Z,21.63
2022-12-01T01:08:57.637Z,19.50
2022-12-01T01:11:59.757Z,23.00
2022-12-01T01:15:02.908Z,21.97
2022-12-01T01:18:05.968Z,21.83
2022-12-01T01:21:11.817Z,21.90
2022-12-01T01:24:13.935Z,19.23
2022-12-01T01:27:15.989Z,19.40
2022-12-01T01:30:18.693Z,19.50
2022-12-01T01:33:20.698Z,20.17
2022-12-01T01:36:23.482Z,19.50
2022-12-01T01:39:25.508Z,22.60
2022-12-01T01:42:27.571Z,22.80
2022-12-01T01:45:30.125Z,22.80
2022-12-01T01:48:34.375Z,25.93
2022-12-01T01:51:45.301Z,25.07
2022-12-01T01:54:51.341Z,24.10
2022-12-01T01:57:53.489Z,29.33
2022-12-01T02:00:55.667Z,29.20
2022-12-01T02:03:58.765Z,28.77
2022-12-01T02:07:01.028Z,27.37
2022-12-01T02:10:06.023Z,30.33
2022-12-01T02:13:30.277Z,24.47
2022-12-01T02:17:02.235Z,30.60
2022-12-01T02:20:16.620Z,26.67
2022-12-01T02:23:39.985Z,27.57
2022-12-01T02:26:51.126Z,34.07
2022-12-01T02:29:56.277Z,21.87
2022-12-01T02:33:09.448Z,23.23
2022-12-01T02:36:28.506Z,22.50
2022-12-01T02:39:30.659Z,25.30
2022-12-01T02:42:52.381Z,25.10
2022-12-01T02:46:00.936Z,27.33
2022-12-01T02:49:10.119Z,30.00
2022-12-01T02:52:14.300Z,33.03
2022-12-01T02:55:16.385Z,36.63
2022-12-01T02:58:19.028Z,38.13
2022-12-01T03:01:32.995Z,33.40
2022-12-01T03:04:39.447Z,35.20
2022-12-01T03:08:01.970Z,43.50
2022-12-01T03:11:04.248Z,38.60
2022-12-01T03:14:26.022Z,33.17
2022-12-01T03:18:11.483Z,37.17
2022-12-01T03:21:25.740Z,31.33
2022-12-01T03:24:33.143Z,31.77
2022-12-01T03:27:41.785Z,32.67
2022-12-01T03:30:57.366Z,33.23
2022-12-01T03:34:05.181Z,25.93
2022-12-01T03:37:18.211Z,27.27
2022-12-01T03:40:27.385Z,33.17
2022-12-01T03:43:35.337Z,32.73
2022-12-01T03:46:50.349Z,31.00
2022-12-01T03:49:54.149Z,37.43
2022-12-01T03:53:21.793Z,37.93
2022-12-01T03:56:26.677Z,39.90
2022-12-01T03:59:30.295Z,39.10
2022-12-01T04:02:32.700Z,34.23
2022-12-01T04:05:35.486Z,36.73
2022-12-01T04:08:37.995Z,35.40
2022-12-01T04:11:58.637Z,35.73
2022-12-01T04:15:10.380Z,36.50
2022-12-01T04:18:12.426Z,41.83
2022-12-01T04:21:14.431Z,41.10
2022-12-01T04:24:16.535Z,42.73
2022-12-01T04:27:19.459Z,37.87
2022-12-01T04:30:21.488Z,43.33
2022-12-01T04:33:23.554Z,45.20
2022-12-01T04:36:26.980Z,49.63
2022-12-01T04:39:29.046Z,42.13
2022-12-01T04:42:31.163Z,47.43
2022-12-01T04:45:33.181Z,46.23
2022-12-01T04:48:36.677Z,45.43
2022-12-01T04:51:38.865Z,40.87
2022-12-01T04:54:40.893Z,41.90
2022-12-01T04:57:42.939Z,48.57
2022-12-01T05:00:45.256Z,40.00
2022-12-01T05:03:51.673Z,50.60
2022-12-01T05:06:55.663Z,43.37
2022-12-01T05:09:58.342Z,48.07
2022-12-01T05:13:00.668Z,49.50
2022-12-01T05:16:08.374Z,44.37
2022-12-01T05:19:29.234Z,44.03
2022-12-01T05:22:57.217Z,47.30
2022-12-01T05:25:53.545Z,44.47
2022-12-01T05:28:55.703Z,50.50
2022-12-01T05:31:57.768Z,48.80
2022-12-01T05:34:59.867Z,53.73
2022-12-01T05:38:07.501Z,48.13
2022-12-01T05:41:11.160Z,49.50
2022-12-01T05:44:13.193Z,41.63
2022-12-01T05:47:15.256Z,49.00
2022-12-01T05:50:17.420Z,46.13
2022-12-01T05:53:20.222Z,50.27
2022-12-01T05:56:22.250Z,49.43
2022-12-01T05:59:24.436Z,45.40
2022-12-01T06:02:29.500Z,49.87
2022-12-01T06:05:32.079Z,52.60
2022-12-01T06:08:34.119Z,46.93
2022-12-01T06:11:36.263Z,43.40
2022-12-01T06:14:38.457Z,46.57
2022-12-01T06:17:40.954Z,50.37
2022-12-01T06:20:43.004Z,50.87
2022-12-01T06:23:45.122Z,52.57
2022-12-01T06:26:47.290Z,46.17
2022-12-01T06:29:49.993Z,54.07
2022-12-01T06:32:52.502Z,59.73
2022-12-01T06:36:01.739Z,49.97
2022-12-01T06:39:10.303Z,50.20
2022-12-01T06:42:12.542Z,48.23
2022-12-01T06:45:14.896Z,49.40
2022-12-01T06:48:16.961Z,52.23
2022-12-01T06:51:19.097Z,52.97
2022-12-01T06:54:21.577Z,50.80
2022-12-01T06:57:23.679Z,52.80
2022-12-01T07:00:26.163Z,51.67
2022-12-01T07:03:28.232Z,59.27
2022-12-01T07:06:31.522Z,55.10
2022-12-01T07:09:34.245Z,65.17
2022-12-01T07:12:36.366Z,61.40
2022-12-01T07:15:39.133Z,60.63
2022-12-01T07:18:41.447Z,58.80
2022-12-01T07:21:43.693Z,53.77
2022-12-01T07:24:45.807Z,56.63
2022-12-01T07:27:48.054Z,60.30
2022-12-01T07:30:50.132Z,55.63
2022-12-01T07:33:52.805Z,55.00
2022-12-01T07:36:54.860Z,56.57
2022-12-01T07:39:56.925Z,54.57
2022-12-01T07:42:58.954Z,47.87
2022-12-01T07:46:22.591Z,51.67
2022-12-01T07:49:25.852Z,51.23
2022-12-01T07:52:28.019Z,45.57
2022-12-01T07:55:30.115Z,45.53
2022-12-01T07:58:32.763Z,45.23
2022-12-01T08:01:34.851Z,47.73
2022-12-01T08:04:37.251Z,47.40
2022-12-01T08:07:39.483Z,50.60
2022-12-01T08:10:41.610Z,51.97
2022-12-01T08:13:44.179Z,53.03
2022-12-01T08:16:48.110Z,46.73
2022-12-01T08:19:50.582Z,49.77
2022-12-01T08:22:53.015Z,54.30
2022-12-01T08:25:55.274Z,50.90
2022-12-01T08:28:58.167Z,53.77
2022-12-01T08:32:00.234Z,48.33
2022-12-01T08:35:02.398Z,51.17
2022-12-01T08:38:05.159Z,54.03
2022-12-01T08:41:09.087Z,48.27
2022-12-01T08:44:11.488Z,48.67
2022-12-01T08:47:18.513Z,49.20
2022-12-01T08:50:20.825Z,48.57
2022-12-01T08:53:22.910Z,46.60
2022-12-01T08:56:26.499Z,45.53
2022-12-01T08:59:28.537Z,42.37
2022-12-01T09:02:30.890Z,45.17
2022-12-01T09:05:32.960Z,49.43
2022-12-01T09:08:36.994Z,55.77
2022-12-01T09:11:40.062Z,49.40
2022-12-01T09:14:48.403Z,54.27
2022-12-01T09:17:50.519Z,52.57
2022-12-01T09:20:52.907Z,50.80
2022-12-01T09:23:55.105Z,49.13
2022-12-01T09:26:58.665Z,47.17
2022-12-01T09:30:00.696Z,53.73
2022-12-01T09:33:02.822Z,49.90
2022-12-01T09:36:07.854Z,52.23
2022-12-01T09:39:14.082Z,50.23
2022-12-01T09:42:18.798Z,52.90
2022-12-01T09:45:28.200Z,52.07
2022-12-01T09:48:42.909Z,58.37
2022-12-01T09:51:45.341Z,51.97
2022-12-01T09:54:48.309Z,56.53
2022-12-01T09:57:54.464Z,48.63
2022-12-01T10:00:57.852Z,50.03
2022-12-01T10:04:08.346Z,56.57
2022-12-01T10:07:31.845Z,55.63
2022-12-01T10:10:38.481Z,53.83
2022-12-01T10:13:43.653Z,52.47
2022-12-01T10:17:03.802Z,49.53
2022-12-01T10:20:33.592Z,53.07
2022-12-01T10:24:04.515Z,55.83
2022-12-01T10:27:38.635Z,54.63
2022-12-01T10:31:12.727Z,50.37
2022-12-01T10:34:18.346Z,49.77
2022-12-01T10:37:25.312Z,53.93
2022-12-01T10:40:28.322Z,50.17
2022-12-01T10:43:39.558Z,55.53
2022-12-01T10:46:52.987Z,55.87
2022-12-01T10:49:56.456Z,53.70
2022-12-01T10:52:58.492Z,52.07
2022-12-01T10:56:12.293Z,50.67
2022-12-01T10:59:25.805Z,49.53
2022-12-01T11:02:29.844Z,49.67
2022-12-01T11:05:38.185Z,50.03
2022-12-01T11:08:45.638Z,56.83
2022-12-01T11:11:56.183Z,51.83
2022-12-01T11:14:59.247Z,52.77
2022-12-01T11:18:06.979Z,48.23
2022-12-01T11:21:35.194Z,53.23
2022-12-01T11:24:42.505Z,48.50
2022-12-01T11:27:54.395Z,46.80
2022-12-01T11:31:02.795Z,47.67
2022-12-01T11:34:05.414Z,53.03
2022-12-01T11:37:15.968Z,48.47
2022-12-01T11:40:29.719Z,49.67
2022-12-01T11:43:31.789Z,53.57
2022-12-01T11:46:45.984Z,47.97
2022-12-01T11:49:55.185Z,45.87
2022-12-01T11:52:57.323Z,47.33
2022-12-01T11:56:18.993Z,49.97
2022-12-01T11:59:26.814Z,47.93
2022-12-01T12:03:19.534Z,48.83
2022-12-01T12:06:43.939Z,45.50
2022-12-01T12:10:04.365Z,45.00
2022-12-01T12:13:15.735Z,47.63
2022-12-01T12:16:25.333Z,43.83
2022-12-01T12:20:07.138Z,48.43
2022-12-01T12:23:45.409Z,50.00
2022-12-01T12:27:19.923Z,52.00
2022-12-01T12:30:26.718Z,51.47
2022-12-01T12:34:10.081Z,45.57
2022-12-01T12:37:31.595Z,51.10
2022-12-01T12:41:09.576Z,50.93
2022-12-01T12:44:41.525Z,51.67
2022-12-01T12:47:57.559Z,52.13
2022-12-01T12:51:13.445Z,50.43
2022-12-01T12:54:44.800Z,51.40
2022-12-01T12:57:55.543Z,53.60
2022-12-01T13:01:07.805Z,53.43
2022-12-01T13:04:16.805Z,55.53
2022-12-01T13:07:28.212Z,54.67
2022-12-01T13:10:50.895Z,58.30
2022-12-01T13:14:20.062Z,60.33
2022-12-01T13:17:37.274Z,51.00
2022-12-01T13:20:40.502Z,53.13
2022-12-01T13:23:44.216Z,59.07
2022-12-01T13:26:53.622Z,55.67
2022-12-01T13:29:56.515Z,50.00
2022-12-01T13:33:04.174Z,54.70
2022-12-01T13:36:44.991Z,53.87
2022-12-01T13:39:39.423Z,51.90
2022-12-01T13:42:41.793Z,55.53
2022-12-01T13:45:43.938Z,55.17
2022-12-01T13:48:46.006Z,55.07
2022-12-01T13:52:15.724Z,52.73
2022-12-01T13:55:27.169Z,55.33
2022-12-01T13:58:35.280Z,51.00
2022-12-01T14:01:44.311Z,53.37
2022-12-01T14:04:46.544Z,52.50
2022-12-01T14:07:51.048Z,49.30
2022-12-01T14:10:57.236Z,49.80
2022-12-01T14:14:03.786Z,48.00
2022-12-01T14:17:06.748Z,45.97
2022-12-01T14:20:14.926Z,54.60
2022-12-01T14:23:29.271Z,50.30
2022-12-01T14:26:31.919Z,50.53
2022-12-01T14:29:44.645Z,49.80
2022-12-01T14:32:46.758Z,50.53
2022-12-01T14:35:48.926Z,52.30
2022-12-01T14:38:55.454Z,45.13
2022-12-01T14:42:42.308Z,48.87
2022-12-01T14:46:04.793Z,48.27
2022-12-01T14:49:13.111Z,56.13
2022-12-01T14:52:34.923Z,48.20
2022-12-01T14:55:43.520Z,46.03
2022-12-01T14:59:00.087Z,47.03
2022-12-01T15:02:09.751Z,51.17
2022-12-01T15:05:15.913Z,48.87
2022-12-01T15:11:53.687Z,46.87
2022-12-01T15:14:55.896Z,43.77
2022-12-01T15:18:01.875Z,41.20
2022-12-01T15:21:10.080Z,48.70
2022-12-01T15:24:23.904Z,44.20
2022-12-01T15:27:31.719Z,50.23
2022-12-01T15:30:33.934Z,45.87
2022-12-01T15:33:39.207Z,41.33
2022-12-01T15:36:41.944Z,40.93
2022-12-01T15:39:47.548Z,40.87
2022-12-01T15:43:16.907Z,43.93
2022-12-01T15:46:19.778Z,49.90
2022-12-01T15:49:33.448Z,44.77
2022-12-01T15:52:45.158Z,46.53
2022-12-01T15:55:52.939Z,45.00
2022-12-01T15:59:17.090Z,43.90
2022-12-01T16:02:25.410Z,39.37
2022-12-01T16:05:33.709Z,39.70
2022-12-01T16:08:36.070Z,44.50
2022-12-01T16:11:38.271Z,39.07
2022-12-01T16:15:01.784Z,39.97
2022-12-01T16:18:28.881Z,36.87
2022-12-01T16:21:56.198Z,39.70
2022-12-01T16:24:58.570Z,39.93
2022-12-01T16:28:02.151Z,39.33
2022-12-01T16:31:08.297Z,39.57
2022-12-01T16:34:43.995Z,41.70
2022-12-01T16:37:40.041Z,39.90
2022-12-01T16:40:43.873Z,47.13
2022-12-01T16:44:05.717Z,41.57
2022-12-01T16:47:23.968Z,35.93
2022-12-01T16:50:26.157Z,40.13
2022-12-01T16:53:28.706Z,38.27
2022-12-01T16:56:31.205Z,34.80
2022-12-01T16:59:33.716Z,43.43
2022-12-01T17:02:36.593Z,39.00
2022-12-01T17:05:40.776Z,44.10
2022-12-01T17:08:43.087Z,37.03
2022-12-01T17:11:45.776Z,36.13
2022-12-01T17:14:48.777Z,35.37
2022-12-01T17:17:53.719Z,38.10
2022-12-01T17:21:00.568Z,37.47
2022-12-01T17:24:04.815Z,31.77
2022-12-01T17:27:07.913Z,34.87
2022-12-01T17:30:11.232Z,42.93
2022-12-01T17:33:14.013Z,34.30
2022-12-01T17:36:17.422Z,37.10
2022-12-01T17:39:20.343Z,37.80
2022-12-01T17:42:23.483Z,44.93
2022-12-01T17:45:25.687Z,39.57
2022-12-01T17:48:28.279Z,42.23
2022-12-01T17:51:30.496Z,41.60
2022-12-01T17:54:34.593Z,40.10
2022-12-01T17:57:37.064Z,34.70
2022-12-01T18:00:39.928Z,38.77
2022-12-01T18:03:43.221Z,42.83
2022-12-01T18:06:50.812Z,49.60
2022-12-01T18:09:56.432Z,43.63
2022-12-01T18:12:59.220Z,39.50
2022-12-01T18:16:07.901Z,44.40
2022-12-01T18:19:11.678Z,41.93
2022-12-01T18:22:16.435Z,53.97
2022-12-01T18:25:19.188Z,51.53
2022-12-01T18:28:22.843Z,47.53
2022-12-01T18:31:26.369Z,40.33
2022-12-01T18:34:32.708Z,43.03
2022-12-01T18:37:37.054Z,41.87
2022-12-01T18:40:40.816Z,40.33
2022-12-01T18:43:44.761Z,39.83
2022-12-01T18:46:47.787Z,38.67
2022-12-01T18:49:50.378Z,35.73
2022-12-01T18:52:55.025Z,39.50
2022-12-01T18:55:58.060Z,41.23
2022-12-01T18:59:07.093Z,38.63
2022-12-01T19:02:11.253Z,43.20
2022-12-01T19:05:14.359Z,39.43
2022-12-01T19:08:20.980Z,38.17
2022-12-01T19:11:24.868Z,49.60
2022-12-01T19:14:29.973Z,46.47
2022-12-01T19:17:33.277Z,40.93
2022-12-01T19:20:38.558Z,43.17
2022-12-01T19:23:43.908Z,44.00
2022-12-01T19:26:46.819Z,39.23
2022-12-01T19:29:50.299Z,43.93
2022-12-01T19:32:55.450Z,43.83
2022-12-01T19:35:58.574Z,45.03
2022-12-01T19:39:06.054Z,38.93
2022-12-01T19:42:12.509Z,40.63
2022-12-01T19:45:15.698Z,51.57
2022-12-01T19:48:19.539Z,43.90
2022-12-01T19:51:25.843Z,40.50
2022-12-01T19:54:29.578Z,42.27
2022-12-01T19:57:32.737Z,39.80
2022-12-01T20:00:35.929Z,38.10
2022-12-01T20:03:51.855Z,38.73
2022-12-01T20:06:54.919Z,44.87
2022-12-01T20:09:58.159Z,42.70
2022-12-01T20:13:01.506Z,41.17
2022-12-01T20:16:13.014Z,36.60
2022-12-01T20:19:21.220Z,36.20
2022-12-01T20:22:26.863Z,38.57
2022-12-01T20:25:30.209Z,45.87
2022-12-01T20:28:34.999Z,41.97
2022-12-01T20:31:41.008Z,38.97
2022-12-01T20:34:44.799Z,37.93
2022-12-01T20:37:47.916Z,40.37
2022-12-01T20:40:52.757Z,41.53
2022-12-01T20:43:55.621Z,33.47
2022-12-01T20:46:58.858Z,41.77
2022-12-01T20:50:01.868Z,36.10
2022-12-01T20:53:04.717Z,37.97
2022-12-01T20:56:12.076Z,35.77
2022-12-01T20:59:15.102Z,39.93
2022-12-01T21:02:18.146Z,42.77
2022-12-01T21:05:21.053Z,41.23
2022-12-01T21:08:23.436Z,42.63
2022-12-01T21:11:48.786Z,42.70
2022-12-01T21:15:13.509Z,45.60
2022-12-01T21:18:29.353Z,39.27
2022-12-01T21:21:37.463Z,39.80
2022-12-01T21:24:43.713Z,44.73
2022-12-01T21:27:47.352Z,40.33
2022-12-01T21:30:51.621Z,43.43
2022-12-01T21:33:54.555Z,39.90
2022-12-01T21:37:02.273Z,39.97
2022-12-01T21:40:23.855Z,44.50
2022-12-01T21:43:26.231Z,36.50
2022-12-01T21:46:28.537Z,39.57
2022-12-01T21:49:39.755Z,42.23
2022-12-01T21:52:44.839Z,44.30
2022-12-01T21:55:48.139Z,46.33
2022-12-01T21:58:51.103Z,38.40
2022-12-01T22:01:57.492Z,43.47
2022-12-01T22:05:00.220Z,37.70
2022-12-01T22:08:24.824Z,41.13
2022-12-01T22:11:28.984Z,42.40
2022-12-01T22:14:35.532Z,43.40
2022-12-01T22:17:37.950Z,43.07
2022-12-01T22:20:40.021Z,42.60
2022-12-01T22:23:42.016Z,41.50
2022-12-01T22:26:56.715Z,37.90
2022-12-01T22:30:20.888Z,38.87
2022-12-01T22:33:28.600Z,43.00
2022-12-01T22:36:32.297Z,41.77
2022-12-01T22:39:34.393Z,42.63
2022-12-01T22:42:36.712Z,44.03
2022-12-01T22:45:39.282Z,36.77
2022-12-01T22:48:44.626Z,46.10
2022-12-01T22:51:50.933Z,44.77
2022-12-01T22:54:53.256Z,37.53
2022-12-01T22:57:55.376Z,42.80
2022-12-01T23:01:20.177Z,43.00
2022-12-01T23:04:31.342Z,39.47
2022-12-01T23:07:36.695Z,41.93
2022-12-01T23:10:40.910Z,42.50
2022-12-01T23:13:42.940Z,42.57
2022-12-01T23:16:45.178Z,43.80
2022-12-01T23:19:48.718Z,41.97
2022-12-01T23:22:55.015Z,44.73
2022-12-01T23:25:57.471Z,43.83
2022-12-01T23:29:00.769Z,40.20
2022-12-01T23:32:02.913Z,40.63
2022-12-01T23:35:07.218Z,45.70
2022-12-01T23:38:19.660Z,33.90
2022-12-01T23:41:36.616Z,42.47
2022-12-01T23:44:45.785Z,43.53
2022-12-01T23:47:48.097Z,41.10
2022-12-01T23:50:53.033Z,40.90
2022-12-01T23:53:56.986Z,38.07
2022-12-01T23:57:03.185Z,39.70
